Time;durP1;ratioP1;P1;durP2;ratioP2;P2;SDS_P1;SDS_P2;PMS_P1;PMS_P2;Temp;Humidity;BMP_temperature;BMP_pressure;BME280_temperature;BME280_humidity;BME280_pressure;Samples;Min_cycle;Max_cycle;Signal;HPM_P1;HPM_P2
2023/03/31 00:01:34;;;;;;;17.60;10.90;;;;;;;5.23;52.74;98885.14;107519;1254;60562;-36
2023/03/31 00:04:07;;;;;;;18.00;11.30;;;;;;;5.26;52.50;98883.48;107537;1254;74805;-36
2023/03/31 00:06:40;;;;;;;19.60;11.10;;;;;;;5.31;52.22;98884.70;107379;1254;68327;-36
2023/03/31 00:09:14;;;;;;;18.80;11.90;;;;;;;5.35;52.04;98881.68;107328;1254;73598;-36
2023/03/31 00:11:44;;;;;;;21.50;12.00;;;;;;;5.36;51.99;98882.59;107379;1254;60413;-36
2023/03/31 00:14:14;;;;;;;20.80;10.90;;;;;;;5.37;52.09;98875.67;107457;1254;60425;-36
2023/03/31 00:16:43;;;;;;;18.00;11.50;;;;;;;5.30;52.22;98862.73;107410;1254;74741;-35
2023/03/31 00:19:19;;;;;;;18.40;11.80;;;;;;;5.36;52.41;98864.96;107521;1254;68860;-36
2023/03/31 00:21:47;;;;;;;16.90;11.10;;;;;;;5.38;52.48;98866.86;107464;1254;72631;-36
2023/03/31 00:24:17;;;;;;;18.00;11.60;;;;;;;5.37;52.49;98861.33;107451;1258;60533;-36
2023/03/31 00:26:46;;;;;;;18.00;11.30;;;;;;;5.36;52.35;98854.06;106653;1254;1003083;-36
2023/03/31 00:29:15;;;;;;;18.90;11.20;;;;;;;5.38;52.29;98854.69;107497;1254;74795;-35
2023/03/31 00:31:43;;;;;;;21.20;11.60;;;;;;;5.42;52.24;98854.41;107509;1254;68164;-35
2023/03/31 00:34:12;;;;;;;17.60;11.30;;;;;;;5.43;52.25;98850.54;107416;1254;73868;-36
2023/03/31 00:36:46;;;;;;;19.10;11.10;;;;;;;5.45;52.03;98847.29;107419;1254;60421;-36
2023/03/31 00:39:17;;;;;;;18.20;11.10;;;;;;;5.47;52.05;98841.34;107486;1254;61527;-36
2023/03/31 00:41:46;;;;;;;16.70;10.60;;;;;;;5.48;51.95;98839.09;107531;1254;74920;-36
2023/03/31 00:44:17;;;;;;;15.60;8.70;;;;;;;5.50;52.05;98835.69;107507;1254;67992;-35
2023/03/31 00:47:01;;;;;;;15.30;10.40;;;;;;;5.52;51.90;98827.45;107497;1256;74024;-35
2023/03/31 00:49:40;;;;;;;15.70;9.70;;;;;;;5.55;51.97;98825.92;107555;1254;60455;-36
2023/03/31 00:52:20;;;;;;;20.10;11.00;;;;;;;5.58;51.92;98817.56;107432;1254;61597;-36
2023/03/31 00:55:01;;;;;;;20.80;11.10;;;;;;;5.61;52.35;98815.44;107510;1254;73516;-36
2023/03/31 00:57:31;;;;;;;19.10;11.40;;;;;;;5.62;52.47;98815.00;107368;1256;69207;-37
2023/03/31 01:00:00;;;;;;;;;;;;;;;5.63;52.56;98811.19;107361;1254;74946;-36
2023/03/31 01:02:33;;;;;;;18.50;11.00;;;;;;;5.59;52.74;98811.60;107360;1254;60648;-36
2023/03/31 01:05:02;;;;;;;13.20;8.10;;;;;;;5.55;52.71;98807.59;107435;1254;61222;-36
2023/03/31 01:07:36;;;;;;;18.10;11.00;;;;;;;5.57;52.70;98803.56;107524;1254;75668;-36
2023/03/31 01:10:06;;;;;;;16.10;10.60;;;;;;;5.59;52.56;98804.79;107431;1254;69163;-36
2023/03/31 01:12:39;;;;;;;;;;;;;;;5.59;52.00;98805.33;107525;1254;74917;-36
2023/03/31 01:15:08;;;;;;;19.00;10.10;;;;;;;5.53;52.13;98796.15;107373;1256;60541;-36
2023/03/31 01:17:37;;;;;;;14.90;8.90;;;;;;;5.51;52.32;98790.85;107463;1254;60290;-36
2023/03/31 01:20:30;;;;;;;16.30;10.10;;;;;;;5.54;52.48;98788.20;107544;1254;72760;-36
2023/03/31 01:23:04;;;;;;;15.30;10.00;;;;;;;5.56;52.84;98783.77;107531;1254;69138;-36
2023/03/31 01:25:41;;;;;;;16.80;10.80;;;;;;;5.52;53.02;98785.66;107423;1254;73857;-36
2023/03/31 01:28:35;;;;;;;16.70;9.80;;;;;;;5.49;53.41;98779.29;107408;1254;60363;-36
2023/03/31 01:31:26;;;;;;;17.30;10.40;;;;;;;5.51;53.25;98777.71;107417;1254;60345;-36
2023/03/31 01:34:13;;;;;;;14.50;9.80;;;;;;;5.49;53.35;98775.21;107407;1254;73783;-36
2023/03/31 01:37:00;;;;;;;15.40;9.60;;;;;;;5.48;53.23;98770.73;107490;1254;69108;-37
2023/03/31 01:40:08;;;;;;;14.00;9.70;;;;;;;5.49;53.39;98766.52;107477;1257;74320;-36
2023/03/31 01:42:56;;;;;;;16.60;9.90;;;;;;;5.50;53.24;98762.11;107492;1254;60813;-36
2023/03/31 01:45:46;;;;;;;15.10;9.00;;;;;;;5.48;53.06;98760.27;107522;1254;61185;-36
2023/03/31 01:48:19;;;;;;;15.60;10.20;;;;;;;5.48;52.93;98753.13;107413;1254;75047;-36
2023/03/31 01:50:50;;;;;;;16.60;9.70;;;;;;;5.49;52.63;98748.25;107493;1254;67695;-36
2023/03/31 01:53:31;;;;;;;14.10;9.20;;;;;;;5.52;52.77;98746.50;106711;1254;1003916;-36
2023/03/31 01:56:25;;;;;;;14.20;8.20;;;;;;;5.50;52.36;98730.38;107456;1259;60777;-36
2023/03/31 01:59:03;;;;;;;11.20;7.90;;;;;;;5.56;51.89;98730.41;107517;1254;61246;-36
2023/03/31 02:01:36;;;;;;;12.90;8.10;;;;;;;5.53;51.66;98730.15;107505;1254;74803;-36
2023/03/31 02:04:14;;;;;;;12.10;7.70;;;;;;;5.51;51.80;98731.70;107460;1254;66915;-36
2023/03/31 02:06:46;;;;;;;11.70;7.80;;;;;;;5.52;51.81;98730.58;107464;1254;73942;-36
2023/03/31 02:09:16;;;;;;;10.90;7.10;;;;;;;5.51;51.56;98729.50;107518;1254;60471;-37
2023/03/31 02:11:44;;;;;;;12.80;7.50;;;;;;;5.52;51.59;98725.35;107486;1254;61272;-37
2023/03/31 02:14:20;;;;;;;11.30;7.30;;;;;;;5.51;51.80;98715.75;107222;1254;74899;-36
2023/03/31 02:17:07;;;;;;;13.10;7.50;;;;;;;5.51;51.53;98709.83;107377;1254;69202;-37
2023/03/31 02:19:38;;;;;;;12.40;6.90;;;;;;;5.50;51.95;98710.94;107461;1254;73937;-37
2023/03/31 02:22:07;;;;;;;12.90;7.60;;;;;;;5.50;51.67;98708.88;107381;1259;60424;-37
2023/03/31 02:24:35;;;;;;;11.40;7.00;;;;;;;5.52;51.85;98709.92;107386;1259;61552;-37
2023/03/31 02:27:11;;;;;;;;;;;;;;;5.53;51.57;98701.36;107334;1254;74764;-36
2023/03/31 02:29:40;;;;;;;9.50;6.30;;;;;;;5.47;51.60;98705.87;107443;1254;68914;-37
2023/03/31 02:32:31;;;;;;;15.40;7.40;;;;;;;5.45;51.44;98706.48;107460;1254;73461;-37
2023/03/31 02:35:00;;;;;;;13.50;7.70;;;;;;;5.45;51.78;98705.90;107479;1254;60894;-37
2023/03/31 02:37:29;;;;;;;12.30;6.80;;;;;;;5.41;51.72;98704.10;107416;1254;61660;-37
2023/03/31 02:39:59;;;;;;;;;;;;;;;5.41;51.70;98704.23;107478;1254;76214;-37
2023/03/31 02:42:28;;;;;;;14.30;7.20;;;;;;;5.35;51.84;98702.54;106745;1254;1002901;-37
2023/03/31 02:45:02;;;;;;;9.00;6.10;;;;;;;5.31;51.97;98706.10;107378;1254;73826;-37
2023/03/31 02:47:31;;;;;;;11.90;7.30;;;;;;;5.34;51.92;98698.90;107475;1254;60839;-37
2023/03/31 02:50:00;;;;;;;12.80;7.10;;;;;;;5.34;52.18;98699.66;107490;1254;60409;-37
2023/03/31 02:52:32;;;;;;;15.00;6.80;;;;;;;5.35;52.27;98704.75;107496;1254;75109;-37
2023/03/31 02:55:10;;;;;;;9.90;6.90;;;;;;;5.37;52.60;98707.03;107443;1254;69081;-37
2023/03/31 02:57:48;;;;;;;11.60;7.10;;;;;;;5.38;52.41;98705.69;107457;1254;73541;-37
2023/03/31 03:00:27;;;;;;;11.20;7.60;;;;;;;5.37;52.44;98700.82;107299;1254;60568;-37
2023/03/31 03:03:08;;;;;;;11.60;7.50;;;;;;;5.36;52.58;98700.03;107485;1254;60441;-37
2023/03/31 03:05:57;;;;;;;11.20;7.40;;;;;;;5.37;52.56;98706.82;107373;1254;74828;-37
2023/03/31 03:09:05;;;;;;;13.20;6.90;;;;;;;5.38;52.80;98703.30;107353;1254;69230;-37
2023/03/31 03:12:09;;;;;;;12.90;7.00;;;;;;;5.41;52.68;98704.15;107371;1254;73638;-37
2023/03/31 03:14:47;;;;;;;13.20;7.70;;;;;;;5.46;52.84;98695.86;107081;1254;60546;-37
2023/03/31 03:17:20;;;;;;;13.90;7.60;;;;;;;5.50;52.83;98695.52;107466;1254;61301;-37
2023/03/31 03:19:53;;;;;;;12.00;7.70;;;;;;;5.53;52.80;98692.54;107525;1254;75064;-37
2023/03/31 03:22:22;;;;;;;13.50;7.50;;;;;;;5.57;52.77;98690.79;107519;1254;67631;-37
2023/03/31 03:24:51;;;;;;;12.40;7.30;;;;;;;5.60;52.65;98690.04;107561;1254;74318;-37
2023/03/31 03:27:21;;;;;;;12.50;7.20;;;;;;;5.63;52.74;98690.20;106742;1254;1003424;-37
2023/03/31 03:29:50;;;;;;;12.30;7.60;;;;;;;5.66;52.77;98684.13;107536;1254;61495;-36
2023/03/31 03:32:19;;;;;;;9.40;6.00;;;;;;;5.68;52.83;98678.80;106746;1254;1003092;-36
2023/03/31 03:34:49;;;;;;;13.60;7.70;;;;;;;5.70;53.05;98676.92;106789;1254;1002873;-35
2023/03/31 03:37:18;;;;;;;14.10;8.10;;;;;;;5.72;52.82;98674.67;107509;1254;72711;-36
2023/03/31 03:39:47;;;;;;;15.40;8.70;;;;;;;5.72;52.84;98672.75;107492;1254;60773;-35
2023/03/31 03:42:15;;;;;;;12.90;8.50;;;;;;;5.69;52.93;98674.14;107531;1254;61594;-36
2023/03/31 03:44:44;;;;;;;12.80;8.40;;;;;;;5.63;52.80;98670.69;107374;1254;75082;-36
2023/03/31 03:47:17;;;;;;;15.40;8.80;;;;;;;5.61;53.15;98671.69;107373;1254;69169;-35
2023/03/31 03:49:48;;;;;;;15.20;8.80;;;;;;;5.56;52.94;98669.11;107383;1254;73529;-36
2023/03/31 03:52:17;;;;;;;13.20;7.30;;;;;;;5.54;53.01;98667.98;107357;1254;60200;-37
2023/03/31 03:54:46;;;;;;;12.40;7.60;;;;;;;5.53;52.90;98669.63;107391;1254;61505;-37
2023/03/31 03:57:16;;;;;;;14.80;8.10;;;;;;;5.53;52.84;98668.08;107538;1254;74926;-37
2023/03/31 03:59:44;;;;;;;13.00;7.70;;;;;;;5.53;53.07;98663.65;107504;1254;69133;-37
2023/03/31 04:02:14;;;;;;;;;;;;;;;5.53;53.13;98660.48;107463;1254;73855;-37
2023/03/31 04:04:43;;;;;;;13.30;7.50;;;;;;;5.48;53.31;98659.75;107540;1254;60555;-37
2023/03/31 04:07:12;;;;;;;13.30;8.20;;;;;;;5.43;53.41;98652.00;107394;1254;61235;-37
2023/03/31 04:09:40;;;;;;;12.00;6.90;;;;;;;5.45;53.76;98651.59;107420;1254;75012;-37
2023/03/31 04:12:09;;;;;;;11.70;7.30;;;;;;;5.49;53.71;98650.39;107485;1258;68855;-37
2023/03/31 04:14:38;;;;;;;12.30;7.20;;;;;;;5.53;53.59;98648.66;107492;1254;73845;-37
2023/03/31 04:17:09;;;;;;;;;;;;;;;5.56;53.32;98642.67;107478;1254;60907;-37
2023/03/31 04:19:41;;;;;;;11.70;6.90;;;;;;;5.51;53.45;98640.10;107524;1254;60940;-37
2023/03/31 04:22:10;;;;;;;11.70;6.20;;;;;;;5.45;53.46;98638.38;107573;1254;73549;-37
2023/03/31 04:24:44;;;;;;;13.60;6.70;;;;;;;5.45;53.77;98637.70;107465;1254;68772;-37
2023/03/31 04:27:16;;;;;;;11.40;7.00;;;;;;;5.47;53.67;98640.41;107386;1254;73502;-37
2023/03/31 04:29:53;;;;;;;10.60;6.60;;;;;;;5.46;53.43;98638.03;107381;1254;60701;-36
2023/03/31 04:32:22;;;;;;;11.30;6.80;;;;;;;5.44;53.74;98638.10;107351;1254;60535;-35
2023/03/31 04:34:50;;;;;;;9.20;6.50;;;;;;;5.43;53.89;98632.65;107395;1254;74061;-36
2023/03/31 04:37:19;;;;;;;11.50;6.50;;;;;;;5.47;53.68;98635.36;107478;1254;69092;-36
2023/03/31 04:39:49;;;;;;;9.70;6.00;;;;;;;5.49;53.77;98627.89;107419;1254;73491;-36
2023/03/31 04:42:18;;;;;;;13.80;6.70;;;;;;;5.52;53.82;98622.84;107448;1254;60886;-36
2023/03/31 04:44:47;;;;;;;11.10;6.50;;;;;;;5.56;53.76;98616.63;107483;1254;61354;-35
2023/03/31 04:47:19;;;;;;;12.60;6.70;;;;;;;5.60;54.12;98613.97;107502;1254;75044;-35
2023/03/31 04:49:48;;;;;;;13.00;7.10;;;;;;;5.60;54.38;98607.53;107491;1254;68138;-36
2023/03/31 04:52:16;;;;;;;11.20;6.80;;;;;;;5.63;54.36;98608.91;107536;1254;74247;-36
2023/03/31 04:54:44;;;;;;;12.80;7.30;;;;;;;5.63;54.41;98607.45;107455;1259;60591;-36
2023/03/31 04:57:13;;;;;;;11.90;6.90;;;;;;;5.64;54.08;98608.23;107535;1254;61289;-36
2023/03/31 04:59:41;;;;;;;10.50;7.10;;;;;;;5.64;54.09;98607.09;107528;1255;73489;-37
2023/03/31 05:02:12;;;;;;;10.80;7.50;;;;;;;5.65;54.30;98602.42;107482;1254;69243;-37
2023/03/31 05:04:40;;;;;;;12.90;6.90;;;;;;;5.65;54.05;98594.67;107534;1254;73888;-37
2023/03/31 05:07:09;;;;;;;11.00;7.30;;;;;;;5.65;53.83;98587.60;107490;1254;60925;-37
2023/03/31 05:09:38;;;;;;;12.90;7.00;;;;;;;5.67;53.78;98585.12;107516;1254;60535;-37
2023/03/31 05:12:07;;;;;;;11.30;7.30;;;;;;;5.68;53.52;98580.38;107488;1254;75157;-36
2023/03/31 05:14:36;;;;;;;11.20;6.70;;;;;;;5.69;53.48;98579.86;107494;1254;68439;-37
2023/03/31 05:17:04;;;;;;;11.70;7.10;;;;;;;5.71;53.65;98576.06;107463;1254;73936;-37
2023/03/31 05:19:34;;;;;;;13.50;8.00;;;;;;;5.72;53.72;98571.73;107469;1254;60867;-37
2023/03/31 05:22:03;;;;;;;10.90;6.40;;;;;;;5.73;53.84;98569.05;107519;1254;61214;-37
2023/03/31 05:24:31;;;;;;;14.00;7.70;;;;;;;5.73;54.00;98563.67;107480;1254;75075;-37
2023/03/31 05:27:00;;;;;;;11.30;7.40;;;;;;;5.76;54.45;98556.81;107426;1254;69198;-37
2023/03/31 05:29:30;;;;;;;16.20;7.40;;;;;;;5.79;54.57;98559.67;107408;1254;73880;-37
2023/03/31 05:31:58;;;;;;;9.10;5.90;;;;;;;5.81;54.40;98557.95;107420;1254;60675;-37
2023/03/31 05:34:27;;;;;;;13.70;8.20;;;;;;;5.83;54.08;98557.23;107382;1254;61548;-37
2023/03/31 05:36:56;;;;;;;12.10;7.40;;;;;;;5.86;53.86;98555.39;107420;1254;74564;-37
2023/03/31 05:39:26;;;;;;;13.50;7.40;;;;;;;5.87;53.73;98555.50;107512;1254;68908;-37
2023/03/31 05:41:54;;;;;;;13.70;8.10;;;;;;;5.87;53.96;98553.98;107527;1258;72654;-36
2023/03/31 05:44:22;;;;;;;12.10;7.80;;;;;;;5.89;53.81;98551.73;107499;1254;60829;-37
2023/03/31 05:46:51;;;;;;;13.90;8.30;;;;;;;5.88;53.99;98546.23;107521;1254;61572;-37
2023/03/31 05:49:21;;;;;;;12.90;8.30;;;;;;;5.85;54.18;98542.15;107509;1254;73841;-37
2023/03/31 05:51:50;;;;;;;;;;;;;;;5.85;54.48;98538.54;107543;1254;69229;-37
2023/03/31 05:54:19;;;;;;;16.60;9.80;;;;;;;5.84;55.39;98542.58;107550;1254;73855;-37
2023/03/31 05:56:48;;;;;;;15.20;10.10;;;;;;;5.89;55.63;98536.19;106774;1254;1003581;-37
2023/03/31 05:59:17;;;;;;;16.80;10.00;;;;;;;6.01;55.31;98535.04;107517;1254;61377;-37
2023/03/31 06:01:47;;;;;;;14.30;9.10;;;;;;;6.10;54.31;98533.00;107503;1254;75010;-37
2023/03/31 06:04:16;;;;;;;16.80;10.20;;;;;;;6.17;54.15;98535.93;107549;1254;69168;-37
2023/03/31 06:06:45;;;;;;;17.20;10.30;;;;;;;6.24;54.01;98536.23;107546;1254;73870;-37
2023/03/31 06:09:13;;;;;;;17.60;10.80;;;;;;;6.32;53.57;98527.52;107450;1254;60867;-37
2023/03/31 06:11:43;;;;;;;17.10;10.20;;;;;;;6.40;53.33;98529.14;107494;1254;61600;-37
2023/03/31 06:14:11;;;;;;;17.30;10.40;;;;;;;6.48;52.86;98526.25;107471;1254;75166;-38
2023/03/31 06:16:40;;;;;;;11.80;7.80;;;;;;;6.58;52.65;98522.00;107489;1254;69170;-37
2023/03/31 06:19:09;;;;;;;17.90;10.50;;;;;;;6.71;52.88;98521.26;107543;1254;73955;-37
2023/03/31 06:21:37;;;;;;;15.80;9.30;;;;;;;6.85;52.49;98524.86;107490;1254;60431;-37
2023/03/31 06:24:08;;;;;;;18.50;10.40;;;;;;;6.98;51.46;98520.26;107509;1254;60374;-37
2023/03/31 06:26:36;;;;;;;14.90;9.80;;;;;;;7.10;51.53;98518.17;107461;1256;75033;-38
2023/03/31 06:29:05;;;;;;;18.10;10.00;;;;;;;7.23;51.47;98522.81;107519;1254;69130;-38
2023/03/31 06:31:34;;;;;;;14.60;9.10;;;;;;;7.38;50.89;98526.86;107476;1254;72693;-37
2023/03/31 06:34:03;;;;;;;12.60;8.20;;;;;;;7.50;50.17;98519.21;107510;1254;60905;-37
2023/03/31 06:36:32;;;;;;;12.70;7.50;;;;;;;7.59;50.38;98513.21;107461;1254;61673;-38
2023/03/31 06:39:00;;;;;;;12.40;8.00;;;;;;;7.72;50.57;98514.41;107504;1254;75159;-37
2023/03/31 06:41:30;;;;;;;15.50;9.10;;;;;;;7.87;50.41;98517.52;107480;1254;68830;-37
2023/03/31 06:43:59;;;;;;;13.60;8.30;;;;;;;7.99;48.73;98518.48;107400;1254;73654;-37
2023/03/31 06:46:28;;;;;;;13.00;8.40;;;;;;;8.02;46.86;98515.45;107386;1254;60884;-38
2023/03/31 06:48:57;;;;;;;14.70;8.60;;;;;;;8.00;47.03;98509.63;107458;1254;61432;-38
2023/03/31 06:51:25;;;;;;;14.90;8.50;;;;;;;8.01;47.66;98509.25;107443;1254;74379;-37
2023/03/31 06:53:54;;;;;;;15.00;8.90;;;;;;;8.01;47.56;98506.63;107509;1254;69182;-38
2023/03/31 06:56:23;;;;;;;14.30;8.70;;;;;;;8.02;47.82;98503.48;107395;1254;73964;-38
2023/03/31 06:58:52;;;;;;;12.80;7.90;;;;;;;8.04;47.91;98500.67;107490;1259;60861;-38
2023/03/31 07:01:21;;;;;;;12.80;7.90;;;;;;;8.06;47.36;98500.39;107503;1254;62135;-38
2023/03/31 07:03:51;;;;;;;;;;;;;;;8.02;46.83;98492.77;107444;1254;76112;-37
2023/03/31 07:06:19;;;;;;;16.00;9.10;;;;;;;7.99;46.88;98509.77;107467;1254;69100;-37
2023/03/31 07:08:48;;;;;;;17.30;9.60;;;;;;;7.93;47.35;98507.98;107456;1259;73668;-37
2023/03/31 07:11:16;;;;;;;17.50;10.30;;;;;;;7.94;47.57;98502.75;107476;1254;60805;-37
2023/03/31 07:13:48;;;;;;;16.80;9.70;;;;;;;7.94;47.65;98498.73;107520;1254;61282;-38
2023/03/31 07:16:17;;;;;;;16.00;9.90;;;;;;;7.89;47.61;98496.34;107510;1254;73201;-36
2023/03/31 07:18:49;;;;;;;16.20;9.10;;;;;;;7.88;47.94;98496.17;107508;1254;68820;-36
2023/03/31 07:21:18;;;;;;;11.70;7.20;;;;;;;7.88;48.17;98495.17;107532;1254;70686;-36
2023/03/31 07:23:47;;;;;;;9.50;6.30;;;;;;;7.85;47.40;98485.33;107508;1258;60613;-36
2023/03/31 07:26:16;;;;;;;16.20;7.30;;;;;;;7.92;46.96;98488.45;107245;1254;217565;-37
2023/03/31 07:29:35;;;;;;;17.20;7.80;;;;;;;7.99;47.22;98484.86;104078;1291;600252;-36
2023/03/31 07:32:07;;;;;;;13.20;8.40;;;;;;;8.03;47.04;98479.38;106594;1266;60761;-36
2023/03/31 07:34:36;;;;;;;13.50;8.00;;;;;;;8.05;46.99;98479.84;106594;1269;61476;-36
2023/03/31 07:37:05;;;;;;;12.30;7.80;;;;;;;8.04;46.82;98474.83;106718;1266;73265;-37
2023/03/31 07:39:35;;;;;;;14.20;8.50;;;;;;;8.03;46.90;98470.64;106761;1266;68983;-37
2023/03/31 07:42:04;;;;;;;13.70;8.10;;;;;;;8.04;47.19;98463.80;106538;1269;315440;-37
2023/03/31 07:44:34;;;;;;;12.70;7.40;;;;;;;8.05;47.73;98460.80;106994;1264;60847;-37
2023/03/31 07:47:05;;;;;;;13.70;8.80;;;;;;;8.05;47.93;98461.49;107075;1263;61505;-37
2023/03/31 07:49:33;;;;;;;;;;;;;;;8.04;47.99;98461.48;106991;1261;73801;-38
2023/03/31 07:52:02;;;;;;;12.70;7.50;;;;;;;7.96;48.02;98453.34;107051;1261;67950;-37
2023/03/31 07:54:31;;;;;;;11.40;7.90;;;;;;;7.91;48.30;98455.73;107042;1264;73782;-37
2023/03/31 07:57:04;;;;;;;10.40;7.10;;;;;;;7.92;48.67;98459.31;107013;1260;60856;-38
2023/03/31 07:59:35;;;;;;;12.70;7.40;;;;;;;7.94;48.64;98457.70;107055;1260;61007;-38
2023/03/31 08:02:04;;;;;;;11.00;7.40;;;;;;;7.96;48.57;98461.44;106991;1261;73932;-38
2023/03/31 08:04:34;;;;;;;11.70;8.30;;;;;;;7.98;48.92;98458.15;106913;1261;68932;-37
2023/03/31 08:07:03;;;;;;;11.60;7.80;;;;;;;7.99;49.11;98459.94;106862;1260;73773;-37
2023/03/31 08:09:32;;;;;;;13.00;8.50;;;;;;;8.01;49.32;98459.83;106883;1262;60792;-38
2023/03/31 08:12:01;;;;;;;14.50;8.00;;;;;;;8.05;48.88;98456.57;106941;1261;61583;-37
2023/03/31 08:14:30;;;;;;;13.00;8.30;;;;;;;8.10;48.59;98458.33;107044;1261;73464;-38
2023/03/31 08:17:09;;;;;;;11.90;7.90;;;;;;;8.13;48.79;98457.44;107003;1260;69174;-38
2023/03/31 08:19:39;;;;;;;15.20;7.80;;;;;;;8.13;48.69;98459.30;107008;1261;73859;-37
2023/03/31 08:22:07;;;;;;;12.80;7.80;;;;;;;8.14;48.56;98457.77;106986;1261;60766;-37
2023/03/31 08:24:36;;;;;;;12.10;7.30;;;;;;;8.15;48.32;98452.30;107020;1262;60512;-38
2023/03/31 08:27:04;;;;;;;12.40;7.40;;;;;;;8.18;48.38;98450.80;107027;1261;74351;-38
2023/03/31 08:29:40;;;;;;;12.50;7.20;;;;;;;8.23;48.16;98450.95;107042;1261;69606;-38
2023/03/31 08:32:09;;;;;;;11.30;6.90;;;;;;;8.26;47.93;98451.98;107007;1261;73736;-38
2023/03/31 08:34:41;;;;;;;13.50;7.00;;;;;;;8.27;48.17;98449.54;107088;1261;59629;-38
2023/03/31 08:37:10;;;;;;;14.30;7.50;;;;;;;8.28;46.93;98446.64;107047;1260;60308;-38
2023/03/31 08:39:39;;;;;;;11.60;6.80;;;;;;;8.28;46.96;98445.64;107046;1260;74227;-38
2023/03/31 08:42:36;;;;;;;11.00;6.40;;;;;;;8.31;47.39;98440.52;107080;1261;67706;-38
2023/03/31 08:45:17;;;;;;;10.70;6.60;;;;;;;8.34;46.51;98443.48;106862;1262;74102;-38
2023/03/31 08:47:46;;;;;;;13.10;6.50;;;;;;;8.31;46.86;98438.73;107024;1262;60506;-38
2023/03/31 08:50:16;;;;;;;8.80;6.00;;;;;;;8.33;47.14;98438.14;107065;1260;59964;-38
2023/03/31 08:53:05;;;;;;;12.30;6.70;;;;;;;8.36;46.82;98434.40;107060;1264;74053;-38
2023/03/31 08:55:56;;;;;;;9.20;6.20;;;;;;;8.42;47.21;98430.23;107041;1264;67676;-38
2023/03/31 08:58:40;;;;;;;12.80;6.40;;;;;;;8.47;47.24;98431.45;107014;1260;73972;-38
2023/03/31 09:01:41;;;;;;;12.90;6.90;;;;;;;8.46;47.24;98420.10;107013;1260;59917;-38
2023/03/31 09:04:58;;;;;;;11.20;7.40;;;;;;;8.45;47.10;98413.45;106939;1261;61588;-38
2023/03/31 09:07:52;;;;;;;13.10;6.90;;;;;;;8.43;47.57;98412.35;106985;1260;74254;-37
2023/03/31 09:10:38;;;;;;;10.40;7.00;;;;;;;8.47;48.10;98408.98;106772;1265;69133;-37
2023/03/31 09:13:27;;;;;;;13.20;7.20;;;;;;;8.53;47.82;98402.74;106894;1262;73881;-37
2023/03/31 09:16:32;;;;;;;14.20;7.20;;;;;;;8.61;47.95;98397.27;106856;1261;60609;-37
2023/03/31 09:19:16;;;;;;;11.30;6.70;;;;;;;8.66;48.04;98389.38;106985;1260;61682;-37
2023/03/31 09:21:48;;;;;;;15.80;6.90;;;;;;;8.70;48.02;98392.43;107010;1261;74338;-37
2023/03/31 09:24:19;;;;;;;11.60;6.50;;;;;;;8.75;47.75;98389.70;107068;1260;69171;-37
2023/03/31 09:27:07;;;;;;;11.20;7.00;;;;;;;8.71;47.91;98376.53;106994;1262;73970;-37
2023/03/31 09:29:45;;;;;;;14.70;8.10;;;;;;;8.77;47.88;98383.99;107025;1261;59802;-37
2023/03/31 09:32:19;;;;;;;10.30;7.00;;;;;;;8.79;48.00;98385.34;107025;1260;61205;-37
2023/03/31 09:34:52;;;;;;;14.60;7.60;;;;;;;8.81;47.89;98388.06;107019;1261;73086;-37
2023/03/31 09:37:21;;;;;;;14.70;6.80;;;;;;;8.81;47.54;98385.35;107061;1260;67723;-37
2023/03/31 09:39:49;;;;;;;11.20;6.70;;;;;;;8.79;47.63;98384.88;106941;1260;73877;-37
2023/03/31 09:42:18;;;;;;;13.90;7.40;;;;;;;8.78;47.54;98383.32;106985;1262;60539;-37
2023/03/31 09:44:48;;;;;;;15.40;7.50;;;;;;;8.77;47.93;98379.06;107003;1261;61586;-37
2023/03/31 09:47:32;;;;;;;13.00;6.90;;;;;;;8.75;48.29;98377.66;106870;1260;74365;-37
2023/03/31 09:50:01;;;;;;;12.00;6.70;;;;;;;8.76;48.24;98375.11;107028;1261;67906;-37
2023/03/31 09:52:39;;;;;;;14.80;7.20;;;;;;;8.75;48.48;98368.79;106923;1261;73913;-37
2023/03/31 09:55:28;;;;;;;10.80;6.90;;;;;;;8.77;48.89;98367.73;106896;1265;60782;-37
2023/03/31 09:58:11;;;;;;;11.70;6.80;;;;;;;8.80;48.75;98367.74;107012;1260;61512;-37
2023/03/31 10:00:43;;;;;;;17.00;7.10;;;;;;;8.83;48.93;98368.46;106968;1261;74045;-37
2023/03/31 10:03:12;;;;;;;14.00;7.20;;;;;;;8.89;48.92;98366.52;106996;1262;69024;-37
2023/03/31 10:05:49;;;;;;;11.30;6.80;;;;;;;8.94;48.92;98363.39;106998;1265;73631;-37
2023/03/31 10:08:21;;;;;;;11.70;7.20;;;;;;;8.99;48.87;98363.30;107021;1260;60738;-37
2023/03/31 10:10:52;;;;;;;12.20;7.20;;;;;;;9.04;49.35;98358.93;107017;1261;60674;-37
2023/03/31 10:13:28;;;;;;;15.50;7.00;;;;;;;9.11;48.47;98355.45;106981;1263;73917;-37
2023/03/31 10:16:07;;;;;;;9.40;6.70;;;;;;;9.15;48.23;98353.09;107033;1260;68024;-37
2023/03/31 10:18:37;;;;;;;12.90;7.10;;;;;;;9.19;48.06;98349.86;107001;1263;73948;-37
2023/03/31 10:21:37;;;;;;;12.90;7.00;;;;;;;9.24;48.42;98343.33;106993;1262;60753;-37
2023/03/31 10:24:09;;;;;;;12.30;7.30;;;;;;;9.36;48.45;98340.88;106992;1263;61534;-38
2023/03/31 10:26:38;;;;;;;10.60;6.50;;;;;;;9.47;47.87;98339.58;107000;1262;74186;-37
2023/03/31 10:29:11;;;;;;;12.70;7.20;;;;;;;9.59;47.28;98337.16;106997;1264;69234;-36
2023/03/31 10:31:40;;;;;;;12.20;6.60;;;;;;;9.72;47.46;98334.63;107012;1261;71918;-37
2023/03/31 10:34:14;;;;;;;10.70;6.70;;;;;;;9.87;47.14;98332.77;106253;1262;1003355;-37
2023/03/31 10:36:47;;;;;;;12.00;7.30;;;;;;;9.98;46.21;98334.67;107045;1264;59982;-37
2023/03/31 10:39:16;;;;;;;10.30;6.90;;;;;;;10.02;46.08;98333.21;107069;1260;71869;-37
2023/03/31 10:41:52;;;;;;;13.90;7.10;;;;;;;10.04;46.18;98325.81;106984;1262;69339;-37
2023/03/31 10:44:30;;;;;;;10.10;6.30;;;;;;;10.08;46.38;98324.59;106898;1263;74057;-37
2023/03/31 10:47:09;;;;;;;11.50;6.00;;;;;;;10.13;45.47;98320.83;106873;1265;61592;-37
2023/03/31 10:49:38;;;;;;;24.00;15.70;;;;;;;10.18;45.10;98311.56;106841;1262;61561;-37
2023/03/31 10:52:28;;;;;;;28.00;21.90;;;;;;;10.23;45.46;98310.98;107071;1260;72547;-37
2023/03/31 10:54:58;;;;;;;22.60;13.90;;;;;;;10.29;45.74;98312.16;106826;1262;69125;-37
2023/03/31 10:57:41;;;;;;;38.40;23.90;;;;;;;10.30;45.64;98308.59;106919;1262;72952;-37
2023/03/31 11:00:13;;;;;;;12.30;7.40;;;;;;;10.29;45.42;98308.83;107027;1262;60509;-37
2023/03/31 11:03:09;;;;;;;79.30;43.30;;;;;;;10.25;45.58;98304.48;106976;1261;60141;-37
2023/03/31 11:05:45;;;;;;;50.30;37.20;;;;;;;10.20;46.20;98297.73;107234;1256;74240;-36
2023/03/31 11:08:45;;;;;;;18.20;12.20;;;;;;;10.19;46.92;98296.02;107241;1259;69035;-37
2023/03/31 11:11:32;;;;;;;22.90;16.70;;;;;;;10.22;46.93;98290.22;107194;1260;73864;-37
2023/03/31 11:14:04;;;;;;;13.00;8.20;;;;;;;10.21;46.37;98286.27;107207;1257;61311;-36
2023/03/31 11:16:38;;;;;;;13.10;7.30;;;;;;;10.19;46.10;98284.26;107222;1257;61417;-37
2023/03/31 11:19:20;;;;;;;16.10;11.40;;;;;;;10.16;46.02;98280.75;107306;1260;74224;-37
2023/03/31 11:22:21;;;;;;;10.60;6.70;;;;;;;10.11;46.08;98274.63;107275;1258;69139;-37
2023/03/31 11:25:13;;;;;;;44.50;32.80;;;;;;;10.08;46.10;98265.00;107096;1257;73736;-37
2023/03/31 11:28:26;;;;;;;11.50;6.90;;;;;;;10.01;45.85;98266.45;107211;1259;61748;-37
2023/03/31 11:31:16;;;;;;;11.00;6.20;;;;;;;9.95;45.44;98252.13;106901;1257;61572;-37
2023/03/31 11:33:51;;;;;;;;;;;;;;;9.94;45.60;98251.66;107305;1257;73950;-37
2023/03/31 11:36:51;;;;;;;166.20;82.70;;;;;;;9.88;46.02;98256.04;107322;1257;68303;-37
2023/03/31 11:39:25;;;;;;;68.10;43.80;;;;;;;9.86;45.85;98261.98;107271;1261;73914;-37
2023/03/31 11:41:57;;;;;;;32.00;20.70;;;;;;;9.85;45.65;98263.07;107244;1257;61219;-37
2023/03/31 11:44:27;;;;;;;49.60;34.70;;;;;;;9.83;45.53;98263.14;107329;1258;59531;-37
2023/03/31 11:46:58;;;;;;;39.00;29.20;;;;;;;9.78;45.03;98259.17;107087;1257;74212;-36
2023/03/31 11:49:29;;;;;;;13.80;9.90;;;;;;;9.73;45.29;98258.98;107250;1257;69102;-37
2023/03/31 11:52:11;;;;;;;52.90;37.20;;;;;;;9.69;45.89;98246.84;107266;1257;72657;-37
2023/03/31 11:54:43;;;;;;;26.60;17.50;;;;;;;9.68;46.32;98244.67;107214;1259;61290;-37
2023/03/31 11:57:31;;;;;;;93.40;66.70;;;;;;;9.67;46.43;98244.52;107234;1259;61492;-37